sensor_id;sensor_type;location;lat;lon;timestamp;P1;durP1;ratioP1;P2;durP2;ratioP2
20084;SDS011;10202;48.474;9.138;2023-03-01T00:01:22;24.10;;;15.47;;
20084;SDS011;10202;48.474;9.138;2023-03-01T00:03:52;26.97;;;15.07;;
20084;SDS011;10202;48.474;9.138;2023-03-01T00:06:21;29.80;;;16.30;;
20084;SDS011;10202;48.474;9.138;2023-03-01T00:08:50;29.43;;;16.50;;
20084;SDS011;10202;48.474;9.138;2023-03-01T00:13:49;28.23;;;15.87;;
20084;SDS011;10202;48.474;9.138;2023-03-01T00:16:32;30.17;;;15.73;;
20084;SDS011;10202;48.474;9.138;2023-03-01T00:19:13;26.83;;;15.77;;
20084;SDS011;10202;48.474;9.138;2023-03-01T00:21:44;28.00;;;16.13;;
20084;SDS011;10202;48.474;9.138;2023-03-01T00:24:15;27.23;;;16.03;;
20084;SDS011;10202;48.474;9.138;2023-03-01T00:26:43;28.70;;;16.50;;
20084;SDS011;10202;48.474;9.138;2023-03-01T00:29:09;31.07;;;16.87;;
20084;SDS011;10202;48.474;9.138;2023-03-01T00:31:34;25.67;;;15.40;;
20084;SDS011;10202;48.474;9.138;2023-03-01T00:34:04;28.80;;;17.50;;
20084;SDS011;10202;48.474;9.138;2023-03-01T00:36:31;30.67;;;16.63;;
20084;SDS011;10202;48.474;9.138;2023-03-01T00:39:02;28.83;;;16.40;;
20084;SDS011;10202;48.474;9.138;2023-03-01T00:41:30;33.67;;;17.50;;
20084;SDS011;10202;48.474;9.138;2023-03-01T00:43:56;32.33;;;17.40;;
20084;SDS011;10202;48.474;9.138;2023-03-01T00:46:26;30.57;;;18.03;;
20084;SDS011;10202;48.474;9.138;2023-03-01T00:49:00;29.53;;;16.73;;
20084;SDS011;10202;48.474;9.138;2023-03-01T00:51:27;32.27;;;17.57;;
20084;SDS011;10202;48.474;9.138;2023-03-01T00:53:57;27.57;;;17.03;;
20084;SDS011;10202;48.474;9.138;2023-03-01T00:56:25;32.43;;;17.87;;
20084;SDS011;10202;48.474;9.138;2023-03-01T00:58:51;31.43;;;17.27;;
20084;SDS011;10202;48.474;9.138;2023-03-01T01:01:23;31.50;;;17.00;;
20084;SDS011;10202;48.474;9.138;2023-03-01T01:03:59;27.77;;;16.70;;
20084;SDS011;10202;48.474;9.138;2023-03-01T01:06:39;29.23;;;16.00;;
20084;SDS011;10202;48.474;9.138;2023-03-01T01:09:08;30.93;;;16.37;;
20084;SDS011;10202;48.474;9.138;2023-03-01T01:11:48;25.80;;;16.10;;
20084;SDS011;10202;48.474;9.138;2023-03-01T01:14:20;27.43;;;15.77;;
20084;SDS011;10202;48.474;9.138;2023-03-01T01:16:48;30.87;;;16.90;;
20084;SDS011;10202;48.474;9.138;2023-03-01T01:19:14;32.90;;;16.77;;
20084;SDS011;10202;48.474;9.138;2023-03-01T01:21:42;25.90;;;14.87;;
20084;SDS011;10202;48.474;9.138;2023-03-01T01:24:08;32.37;;;16.60;;
20084;SDS011;10202;48.474;9.138;2023-03-01T01:26:34;26.87;;;15.93;;
20084;SDS011;10202;48.474;9.138;2023-03-01T01:29:00;32.83;;;16.97;;
20084;SDS011;10202;48.474;9.138;2023-03-01T01:31:30;28.20;;;15.60;;
20084;SDS011;10202;48.474;9.138;2023-03-01T01:34:05;28.80;;;16.27;;
20084;SDS011;10202;48.474;9.138;2023-03-01T01:36:35;30.33;;;16.60;;
20084;SDS011;10202;48.474;9.138;2023-03-01T01:39:02;29.53;;;17.13;;
20084;SDS011;10202;48.474;9.138;2023-03-01T01:41:28;31.80;;;16.47;;
20084;SDS011;10202;48.474;9.138;2023-03-01T01:52:05;29.23;;;16.10;;
20084;SDS011;10202;48.474;9.138;2023-03-01T01:57:27;31.73;;;15.57;;
20084;SDS011;10202;48.474;9.138;2023-03-01T02:00:06;28.87;;;15.27;;
20084;SDS011;10202;48.474;9.138;2023-03-01T02:02:40;28.93;;;15.47;;
20084;SDS011;10202;48.474;9.138;2023-03-01T02:05:14;28.80;;;15.43;;
20084;SDS011;10202;48.474;9.138;2023-03-01T02:07:49;27.77;;;16.23;;
20084;SDS011;10202;48.474;9.138;2023-03-01T02:10:19;30.30;;;16.13;;
20084;SDS011;10202;48.474;9.138;2023-03-01T02:12:48;29.73;;;16.10;;
20084;SDS011;10202;48.474;9.138;2023-03-01T02:15:16;27.67;;;16.50;;
20084;SDS011;10202;48.474;9.138;2023-03-01T02:17:41;29.77;;;16.30;;
20084;SDS011;10202;48.474;9.138;2023-03-01T02:20:22;28.40;;;15.90;;
20084;SDS011;10202;48.474;9.138;2023-03-01T02:23:01;27.23;;;16.07;;
20084;SDS011;10202;48.474;9.138;2023-03-01T02:25:33;26.50;;;15.27;;
20084;SDS011;10202;48.474;9.138;2023-03-01T02:28:09;30.30;;;16.13;;
20084;SDS011;10202;48.474;9.138;2023-03-01T02:30:57;28.83;;;15.57;;
20084;SDS011;10202;48.474;9.138;2023-03-01T02:33:43;24.90;;;14.83;;
20084;SDS011;10202;48.474;9.138;2023-03-01T02:36:17;27.47;;;16.07;;
20084;SDS011;10202;48.474;9.138;2023-03-01T02:39:10;28.23;;;15.63;;
20084;SDS011;10202;48.474;9.138;2023-03-01T02:41:44;28.77;;;15.93;;
20084;SDS011;10202;48.474;9.138;2023-03-01T02:44:15;26.03;;;14.47;;
20084;SDS011;10202;48.474;9.138;2023-03-01T02:46:44;26.93;;;15.53;;
20084;SDS011;10202;48.474;9.138;2023-03-01T02:49:21;29.27;;;14.93;;
20084;SDS011;10202;48.474;9.138;2023-03-01T02:52:33;25.83;;;14.67;;
20084;SDS011;10202;48.474;9.138;2023-03-01T02:55:13;24.00;;;13.87;;
20084;SDS011;10202;48.474;9.138;2023-03-01T02:57:43;24.27;;;13.90;;
20084;SDS011;10202;48.474;9.138;2023-03-01T03:00:21;25.57;;;14.87;;
20084;SDS011;10202;48.474;9.138;2023-03-01T03:02:54;24.87;;;15.10;;
20084;SDS011;10202;48.474;9.138;2023-03-01T03:05:24;31.70;;;16.23;;
20084;SDS011;10202;48.474;9.138;2023-03-01T03:07:56;25.30;;;14.90;;
20084;SDS011;10202;48.474;9.138;2023-03-01T03:10:26;25.07;;;14.53;;
20084;SDS011;10202;48.474;9.138;2023-03-01T03:12:57;24.67;;;14.07;;
20084;SDS011;10202;48.474;9.138;2023-03-01T03:15:26;25.40;;;14.43;;
20084;SDS011;10202;48.474;9.138;2023-03-01T03:17:56;23.20;;;13.90;;
20084;SDS011;10202;48.474;9.138;2023-03-01T03:20:24;26.47;;;15.53;;
20084;SDS011;10202;48.474;9.138;2023-03-01T03:22:53;24.10;;;14.60;;
20084;SDS011;10202;48.474;9.138;2023-03-01T03:25:24;23.97;;;13.87;;
20084;SDS011;10202;48.474;9.138;2023-03-01T03:27:52;24.83;;;13.90;;
20084;SDS011;10202;48.474;9.138;2023-03-01T03:30:29;28.40;;;15.60;;
20084;SDS011;10202;48.474;9.138;2023-03-01T03:32:58;31.43;;;15.67;;
20084;SDS011;10202;48.474;9.138;2023-03-01T03:35:31;33.23;;;17.70;;
20084;SDS011;10202;48.474;9.138;2023-03-01T03:37:59;29.20;;;17.57;;
20084;SDS011;10202;48.474;9.138;2023-03-01T03:40:47;31.13;;;18.53;;
20084;SDS011;10202;48.474;9.138;2023-03-01T03:43:23;31.57;;;17.90;;
20084;SDS011;10202;48.474;9.138;2023-03-01T03:45:51;28.50;;;17.30;;
20084;SDS011;10202;48.474;9.138;2023-03-01T03:48:19;28.87;;;17.30;;
20084;SDS011;10202;48.474;9.138;2023-03-01T03:50:49;29.27;;;17.53;;
20084;SDS011;10202;48.474;9.138;2023-03-01T03:53:24;28.50;;;16.63;;
20084;SDS011;10202;48.474;9.138;2023-03-01T03:55:52;27.10;;;15.50;;
20084;SDS011;10202;48.474;9.138;2023-03-01T03:58:18;26.67;;;15.00;;
20084;SDS011;10202;48.474;9.138;2023-03-01T04:00:48;26.30;;;14.97;;
20084;SDS011;10202;48.474;9.138;2023-03-01T04:03:17;28.33;;;15.33;;
20084;SDS011;10202;48.474;9.138;2023-03-01T04:05:46;24.73;;;14.80;;
20084;SDS011;10202;48.474;9.138;2023-03-01T04:08:15;27.53;;;15.40;;
20084;SDS011;10202;48.474;9.138;2023-03-01T04:10:47;30.70;;;15.47;;
20084;SDS011;10202;48.474;9.138;2023-03-01T04:13:26;28.53;;;15.30;;
20084;SDS011;10202;48.474;9.138;2023-03-01T04:15:54;26.03;;;14.50;;
20084;SDS011;10202;48.474;9.138;2023-03-01T04:18:24;24.57;;;14.70;;
20084;SDS011;10202;48.474;9.138;2023-03-01T04:20:52;28.43;;;15.50;;
20084;SDS011;10202;48.474;9.138;2023-03-01T04:23:20;24.50;;;15.10;;
20084;SDS011;10202;48.474;9.138;2023-03-01T04:25:52;28.23;;;16.03;;
20084;SDS011;10202;48.474;9.138;2023-03-01T04:31:08;25.80;;;15.27;;
20084;SDS011;10202;48.474;9.138;2023-03-01T04:36:15;29.80;;;15.70;;
20084;SDS011;10202;48.474;9.138;2023-03-01T04:38:46;25.77;;;14.97;;
20084;SDS011;10202;48.474;9.138;2023-03-01T04:41:15;24.97;;;14.50;;
20084;SDS011;10202;48.474;9.138;2023-03-01T04:43:42;27.10;;;14.73;;
20084;SDS011;10202;48.474;9.138;2023-03-01T04:46:12;27.23;;;14.90;;
20084;SDS011;10202;48.474;9.138;2023-03-01T04:48:44;29.07;;;15.00;;
20084;SDS011;10202;48.474;9.138;2023-03-01T04:51:10;26.83;;;15.13;;
20084;SDS011;10202;48.474;9.138;2023-03-01T04:53:39;28.47;;;15.17;;
20084;SDS011;10202;48.474;9.138;2023-03-01T04:56:06;29.63;;;15.43;;
20084;SDS011;10202;48.474;9.138;2023-03-01T04:58:32;29.23;;;15.30;;
20084;SDS011;10202;48.474;9.138;2023-03-01T05:00:57;25.70;;;15.27;;
20084;SDS011;10202;48.474;9.138;2023-03-01T05:03:25;24.73;;;14.97;;
20084;SDS011;10202;48.474;9.138;2023-03-01T05:05:58;30.80;;;15.20;;
20084;SDS011;10202;48.474;9.138;2023-03-01T05:08:26;27.20;;;15.67;;
20084;SDS011;10202;48.474;9.138;2023-03-01T05:10:52;28.57;;;16.23;;
20084;SDS011;10202;48.474;9.138;2023-03-01T05:13:23;27.57;;;15.67;;
20084;SDS011;10202;48.474;9.138;2023-03-01T05:15:55;26.37;;;14.73;;
20084;SDS011;10202;48.474;9.138;2023-03-01T05:18:28;26.00;;;14.87;;
20084;SDS011;10202;48.474;9.138;2023-03-01T05:21:01;26.10;;;15.23;;
20084;SDS011;10202;48.474;9.138;2023-03-01T05:23:42;27.20;;;15.27;;
20084;SDS011;10202;48.474;9.138;2023-03-01T05:26:08;29.77;;;15.80;;
20084;SDS011;10202;48.474;9.138;2023-03-01T05:28:34;27.27;;;15.87;;
20084;SDS011;10202;48.474;9.138;2023-03-01T05:31:02;28.27;;;16.57;;
20084;SDS011;10202;48.474;9.138;2023-03-01T05:33:37;28.07;;;15.47;;
20084;SDS011;10202;48.474;9.138;2023-03-01T05:36:09;27.43;;;16.10;;
20084;SDS011;10202;48.474;9.138;2023-03-01T05:38:35;34.33;;;15.70;;
20084;SDS011;10202;48.474;9.138;2023-03-01T05:41:13;29.47;;;15.43;;
20084;SDS011;10202;48.474;9.138;2023-03-01T05:43:41;29.23;;;15.97;;
20084;SDS011;10202;48.474;9.138;2023-03-01T05:46:09;28.83;;;15.57;;
20084;SDS011;10202;48.474;9.138;2023-03-01T05:48:40;25.10;;;15.30;;
20084;SDS011;10202;48.474;9.138;2023-03-01T05:51:11;28.53;;;15.97;;
20084;SDS011;10202;48.474;9.138;2023-03-01T05:53:39;28.93;;;15.90;;
20084;SDS011;10202;48.474;9.138;2023-03-01T05:56:04;28.60;;;16.00;;
20084;SDS011;10202;48.474;9.138;2023-03-01T05:58:31;28.33;;;15.97;;
20084;SDS011;10202;48.474;9.138;2023-03-01T06:00:59;28.97;;;16.27;;
20084;SDS011;10202;48.474;9.138;2023-03-01T06:03:27;28.07;;;16.23;;
20084;SDS011;10202;48.474;9.138;2023-03-01T06:05:56;33.77;;;17.30;;
20084;SDS011;10202;48.474;9.138;2023-03-01T06:08:22;31.97;;;16.27;;
20084;SDS011;10202;48.474;9.138;2023-03-01T06:10:52;27.80;;;15.70;;
20084;SDS011;10202;48.474;9.138;2023-03-01T06:13:20;28.90;;;16.03;;
20084;SDS011;10202;48.474;9.138;2023-03-01T06:15:49;31.43;;;16.47;;
20084;SDS011;10202;48.474;9.138;2023-03-01T06:18:19;28.30;;;15.97;;
20084;SDS011;10202;48.474;9.138;2023-03-01T06:20:56;33.33;;;16.40;;
20084;SDS011;10202;48.474;9.138;2023-03-01T06:23:22;31.67;;;16.87;;
20084;SDS011;10202;48.474;9.138;2023-03-01T06:25:48;26.57;;;15.57;;
20084;SDS011;10202;48.474;9.138;2023-03-01T06:28:19;27.30;;;16.17;;
20084;SDS011;10202;48.474;9.138;2023-03-01T06:30:44;29.60;;;16.37;;
20084;SDS011;10202;48.474;9.138;2023-03-01T06:33:11;30.57;;;16.60;;
20084;SDS011;10202;48.474;9.138;2023-03-01T06:35:39;28.53;;;15.90;;
20084;SDS011;10202;48.474;9.138;2023-03-01T06:38:07;29.43;;;16.87;;
20084;SDS011;10202;48.474;9.138;2023-03-01T06:40:32;27.60;;;16.10;;
20084;SDS011;10202;48.474;9.138;2023-03-01T06:43:00;28.97;;;17.10;;
20084;SDS011;10202;48.474;9.138;2023-03-01T06:45:31;29.07;;;16.57;;
20084;SDS011;10202;48.474;9.138;2023-03-01T06:48:06;29.90;;;16.70;;
20084;SDS011;10202;48.474;9.138;2023-03-01T06:50:34;29.00;;;15.70;;
20084;SDS011;10202;48.474;9.138;2023-03-01T06:53:01;30.00;;;15.90;;
20084;SDS011;10202;48.474;9.138;2023-03-01T06:55:33;31.27;;;17.40;;
20084;SDS011;10202;48.474;9.138;2023-03-01T06:58:02;27.90;;;16.10;;
20084;SDS011;10202;48.474;9.138;2023-03-01T07:00:28;30.97;;;17.43;;
20084;SDS011;10202;48.474;9.138;2023-03-01T07:02:54;25.53;;;15.33;;
20084;SDS011;10202;48.474;9.138;2023-03-01T07:05:24;29.03;;;16.93;;
20084;SDS011;10202;48.474;9.138;2023-03-01T07:07:49;30.73;;;16.67;;
20084;SDS011;10202;48.474;9.138;2023-03-01T07:10:20;29.93;;;17.27;;
20084;SDS011;10202;48.474;9.138;2023-03-01T07:12:53;32.00;;;16.83;;
20084;SDS011;10202;48.474;9.138;2023-03-01T07:15:20;31.03;;;17.40;;
20084;SDS011;10202;48.474;9.138;2023-03-01T07:17:48;30.70;;;17.40;;
20084;SDS011;10202;48.474;9.138;2023-03-01T07:20:16;29.63;;;16.63;;
20084;SDS011;10202;48.474;9.138;2023-03-01T07:22:45;30.07;;;16.63;;
20084;SDS011;10202;48.474;9.138;2023-03-01T07:25:16;31.47;;;17.90;;
20084;SDS011;10202;48.474;9.138;2023-03-01T07:27:44;31.17;;;16.47;;
20084;SDS011;10202;48.474;9.138;2023-03-01T07:30:17;30.27;;;17.13;;
20084;SDS011;10202;48.474;9.138;2023-03-01T07:32:46;29.17;;;16.57;;
20084;SDS011;10202;48.474;9.138;2023-03-01T07:35:14;34.17;;;17.13;;
20084;SDS011;10202;48.474;9.138;2023-03-01T07:37:42;30.77;;;17.43;;
20084;SDS011;10202;48.474;9.138;2023-03-01T07:40:10;30.60;;;16.63;;
20084;SDS011;10202;48.474;9.138;2023-03-01T07:42:40;29.07;;;16.60;;
20084;SDS011;10202;48.474;9.138;2023-03-01T07:45:06;30.27;;;16.97;;
20084;SDS011;10202;48.474;9.138;2023-03-01T07:47:32;29.93;;;17.07;;
20084;SDS011;10202;48.474;9.138;2023-03-01T07:49:57;29.40;;;17.57;;
20084;SDS011;10202;48.474;9.138;2023-03-01T07:52:23;34.50;;;17.90;;
20084;SDS011;10202;48.474;9.138;2023-03-01T07:54:54;32.97;;;18.53;;
20084;SDS011;10202;48.474;9.138;2023-03-01T07:57:22;32.17;;;17.40;;
20084;SDS011;10202;48.474;9.138;2023-03-01T07:59:53;30.97;;;16.47;;
20084;SDS011;10202;48.474;9.138;2023-03-01T08:02:18;30.00;;;17.53;;
20084;SDS011;10202;48.474;9.138;2023-03-01T08:04:46;28.50;;;16.93;;
20084;SDS011;10202;48.474;9.138;2023-03-01T08:07:14;27.67;;;16.90;;
20084;SDS011;10202;48.474;9.138;2023-03-01T08:09:42;34.23;;;17.33;;
20084;SDS011;10202;48.474;9.138;2023-03-01T08:12:08;29.60;;;18.07;;
20084;SDS011;10202;48.474;9.138;2023-03-01T08:14:33;34.00;;;18.37;;
20084;SDS011;10202;48.474;9.138;2023-03-01T08:17:04;32.20;;;17.37;;
20084;SDS011;10202;48.474;9.138;2023-03-01T08:19:32;32.13;;;17.93;;
20084;SDS011;10202;48.474;9.138;2023-03-01T08:22:03;31.53;;;18.13;;
20084;SDS011;10202;48.474;9.138;2023-03-01T08:24:31;35.10;;;17.87;;
20084;SDS011;10202;48.474;9.138;2023-03-01T08:26:59;35.03;;;18.83;;
20084;SDS011;10202;48.474;9.138;2023-03-01T08:29:27;35.93;;;18.37;;
20084;SDS011;10202;48.474;9.138;2023-03-01T08:31:56;29.07;;;16.60;;
20084;SDS011;10202;48.474;9.138;2023-03-01T08:34:21;33.13;;;16.93;;
20084;SDS011;10202;48.474;9.138;2023-03-01T08:36:47;29.97;;;17.57;;
20084;SDS011;10202;48.474;9.138;2023-03-01T08:39:24;36.13;;;18.13;;
20084;SDS011;10202;48.474;9.138;2023-03-01T08:41:55;33.80;;;17.23;;
20084;SDS011;10202;48.474;9.138;2023-03-01T08:44:20;38.33;;;19.30;;
20084;SDS011;10202;48.474;9.138;2023-03-01T08:46:49;39.00;;;19.43;;
20084;SDS011;10202;48.474;9.138;2023-03-01T08:49:18;32.87;;;18.53;;
20084;SDS011;10202;48.474;9.138;2023-03-01T08:51:47;33.53;;;18.83;;
20084;SDS011;10202;48.474;9.138;2023-03-01T08:54:17;32.87;;;18.10;;
20084;SDS011;10202;48.474;9.138;2023-03-01T08:56:45;32.03;;;17.93;;
20084;SDS011;10202;48.474;9.138;2023-03-01T08:59:17;33.33;;;18.60;;
20084;SDS011;10202;48.474;9.138;2023-03-01T09:01:43;29.80;;;17.67;;
20084;SDS011;10202;48.474;9.138;2023-03-01T09:04:09;29.43;;;17.67;;
20084;SDS011;10202;48.474;9.138;2023-03-01T09:06:42;29.43;;;17.77;;
20084;SDS011;10202;48.474;9.138;2023-03-01T09:09:13;35.23;;;18.77;;
20084;SDS011;10202;48.474;9.138;2023-03-01T09:11:45;39.97;;;21.10;;
20084;SDS011;10202;48.474;9.138;2023-03-01T09:14:12;30.07;;;18.43;;
20084;SDS011;10202;48.474;9.138;2023-03-01T09:16:41;29.80;;;18.00;;
20084;SDS011;10202;48.474;9.138;2023-03-01T09:19:11;30.73;;;18.30;;
20084;SDS011;10202;48.474;9.138;2023-03-01T09:21:40;32.47;;;18.43;;
20084;SDS011;10202;48.474;9.138;2023-03-01T09:24:20;32.80;;;17.70;;
20084;SDS011;10202;48.474;9.138;2023-03-01T09:26:48;27.87;;;17.73;;
20084;SDS011;10202;48.474;9.138;2023-03-01T09:29:17;30.57;;;17.87;;
20084;SDS011;10202;48.474;9.138;2023-03-01T09:31:45;31.07;;;17.77;;
20084;SDS011;10202;48.474;9.138;2023-03-01T09:34:10;31.43;;;17.70;;
20084;SDS011;10202;48.474;9.138;2023-03-01T09:36:36;32.03;;;17.93;;
20084;SDS011;10202;48.474;9.138;2023-03-01T09:39:05;29.73;;;17.60;;
20084;SDS011;10202;48.474;9.138;2023-03-01T09:47:11;36.47;;;16.97;;
20084;SDS011;10202;48.474;9.138;2023-03-01T09:49:48;30.33;;;16.60;;
20084;SDS011;10202;48.474;9.138;2023-03-01T09:53:01;30.53;;;17.67;;
20084;SDS011;10202;48.474;9.138;2023-03-01T09:55:31;26.57;;;16.87;;
20084;SDS011;10202;48.474;9.138;2023-03-01T10:00:59;30.80;;;18.17;;
20084;SDS011;10202;48.474;9.138;2023-03-01T10:06:35;35.63;;;17.77;;
20084;SDS011;10202;48.474;9.138;2023-03-01T10:09:21;31.67;;;17.10;;
20084;SDS011;10202;48.474;9.138;2023-03-01T10:11:48;29.07;;;16.87;;
20084;SDS011;10202;48.474;9.138;2023-03-01T10:19:24;26.43;;;15.90;;
20084;SDS011;10202;48.474;9.138;2023-03-01T10:22:04;27.40;;;16.30;;
20084;SDS011;10202;48.474;9.138;2023-03-01T10:24:40;27.97;;;17.23;;
20084;SDS011;10202;48.474;9.138;2023-03-01T10:27:53;31.40;;;17.37;;
20084;SDS011;10202;48.474;9.138;2023-03-01T10:32:50;33.13;;;17.60;;
20084;SDS011;10202;48.474;9.138;2023-03-01T10:35:23;25.60;;;15.93;;
20084;SDS011;10202;48.474;9.138;2023-03-01T10:40:36;26.60;;;15.87;;
20084;SDS011;10202;48.474;9.138;2023-03-01T10:43:32;25.33;;;15.47;;
20084;SDS011;10202;48.474;9.138;2023-03-01T10:46:30;27.07;;;16.33;;
20084;SDS011;10202;48.474;9.138;2023-03-01T10:51:47;29.23;;;14.97;;
20084;SDS011;10202;48.474;9.138;2023-03-01T10:54:16;29.87;;;16.37;;
20084;SDS011;10202;48.474;9.138;2023-03-01T10:56:58;27.47;;;15.03;;
20084;SDS011;10202;48.474;9.138;2023-03-01T10:59:32;25.87;;;14.80;;
20084;SDS011;10202;48.474;9.138;2023-03-01T11:02:04;22.17;;;14.10;;
20084;SDS011;10202;48.474;9.138;2023-03-01T11:05:01;22.43;;;13.80;;
20084;SDS011;10202;48.474;9.138;2023-03-01T11:07:51;26.40;;;15.03;;
20084;SDS011;10202;48.474;9.138;2023-03-01T11:10:19;22.73;;;14.17;;
20084;SDS011;10202;48.474;9.138;2023-03-01T11:13:38;25.20;;;15.60;;
20084;SDS011;10202;48.474;9.138;2023-03-01T11:16:00;25.10;;;14.80;;
20084;SDS011;10202;48.474;9.138;2023-03-01T11:18:38;23.83;;;15.37;;
20084;SDS011;10202;48.474;9.138;2023-03-01T11:21:06;26.33;;;15.30;;
20084;SDS011;10202;48.474;9.138;2023-03-01T11:23:38;21.70;;;14.20;;
20084;SDS011;10202;48.474;9.138;2023-03-01T11:26:05;25.90;;;15.07;;
20084;SDS011;10202;48.474;9.138;2023-03-01T11:28:33;31.30;;;16.50;;
20084;SDS011;10202;48.474;9.138;2023-03-01T11:33:44;24.00;;;14.97;;
20084;SDS011;10202;48.474;9.138;2023-03-01T11:39:09;22.60;;;13.37;;
20084;SDS011;10202;48.474;9.138;2023-03-01T11:41:42;21.60;;;13.87;;
20084;SDS011;10202;48.474;9.138;2023-03-01T11:44:13;24.37;;;14.30;;
20084;SDS011;10202;48.474;9.138;2023-03-01T11:55:22;21.00;;;13.37;;
20084;SDS011;10202;48.474;9.138;2023-03-01T12:21:27;22.23;;;13.83;;
20084;SDS011;10202;48.474;9.138;2023-03-01T12:33:07;21.07;;;13.83;;
20084;SDS011;10202;48.474;9.138;2023-03-01T12:36:03;19.73;;;12.60;;
20084;SDS011;10202;48.474;9.138;2023-03-01T12:38:55;20.70;;;12.75;;
20084;SDS011;10202;48.474;9.138;2023-03-01T12:41:34;21.38;;;13.05;;
20084;SDS011;10202;48.474;9.138;2023-03-01T12:50:11;23.25;;;13.60;;
20084;SDS011;10202;48.474;9.138;2023-03-01T12:52:56;22.35;;;12.77;;
20084;SDS011;10202;48.474;9.138;2023-03-01T12:55:29;20.45;;;12.70;;
20084;SDS011;10202;48.474;9.138;2023-03-01T13:11:17;20.80;;;13.25;;
20084;SDS011;10202;48.474;9.138;2023-03-01T13:13:47;24.70;;;13.18;;
20084;SDS011;10202;48.474;9.138;2023-03-01T13:17:01;23.92;;;14.10;;
20084;SDS011;10202;48.474;9.138;2023-03-01T13:19:14;21.45;;;13.30;;
20084;SDS011;10202;48.474;9.138;2023-03-01T13:21:49;22.85;;;13.77;;
20084;SDS011;10202;48.474;9.138;2023-03-01T13:25:02;21.58;;;12.95;;
20084;SDS011;10202;48.474;9.138;2023-03-01T13:27:19;22.73;;;13.45;;
20084;SDS011;10202;48.474;9.138;2023-03-01T13:35:54;23.58;;;13.77;;
20084;SDS011;10202;48.474;9.138;2023-03-01T13:42:02;22.02;;;13.65;;
20084;SDS011;10202;48.474;9.138;2023-03-01T13:49:51;23.10;;;13.80;;
20084;SDS011;10202;48.474;9.138;2023-03-01T13:58:25;22.58;;;13.77;;
20084;SDS011;10202;48.474;9.138;2023-03-01T14:01:00;24.52;;;14.40;;
20084;SDS011;10202;48.474;9.138;2023-03-01T14:03:40;21.33;;;13.23;;
20084;SDS011;10202;48.474;9.138;2023-03-01T14:06:12;22.27;;;14.13;;
20084;SDS011;10202;48.474;9.138;2023-03-01T14:08:48;22.02;;;14.35;;
20084;SDS011;10202;48.474;9.138;2023-03-01T14:20:43;21.40;;;13.85;;
20084;SDS011;10202;48.474;9.138;2023-03-01T14:23:23;23.88;;;14.45;;
20084;SDS011;10202;48.474;9.138;2023-03-01T14:25:51;23.17;;;14.57;;
20084;SDS011;10202;48.474;9.138;2023-03-01T14:31:01;23.00;;;14.52;;
20084;SDS011;10202;48.474;9.138;2023-03-01T14:33:57;25.27;;;14.45;;
20084;SDS011;10202;48.474;9.138;2023-03-01T14:36:27;23.35;;;14.32;;
20084;SDS011;10202;48.474;9.138;2023-03-01T14:38:55;23.88;;;14.38;;
20084;SDS011;10202;48.474;9.138;2023-03-01T14:41:23;23.23;;;14.50;;
20084;SDS011;10202;48.474;9.138;2023-03-01T14:43:55;22.38;;;14.20;;
20084;SDS011;10202;48.474;9.138;2023-03-01T14:49:16;23.58;;;14.50;;
20084;SDS011;10202;48.474;9.138;2023-03-01T14:51:52;24.65;;;15.45;;
20084;SDS011;10202;48.474;9.138;2023-03-01T14:54:21;24.60;;;14.20;;
20084;SDS011;10202;48.474;9.138;2023-03-01T14:56:53;27.48;;;14.85;;
20084;SDS011;10202;48.474;9.138;2023-03-01T14:59:32;22.30;;;14.00;;
20084;SDS011;10202;48.474;9.138;2023-03-01T15:02:01;21.40;;;13.52;;
20084;SDS011;10202;48.474;9.138;2023-03-01T15:04:29;21.00;;;13.82;;
20084;SDS011;10202;48.474;9.138;2023-03-01T15:06:58;23.75;;;14.18;;
20084;SDS011;10202;48.474;9.138;2023-03-01T15:09:32;26.05;;;14.35;;
20084;SDS011;10202;48.474;9.138;2023-03-01T15:12:23;23.30;;;13.95;;
20084;SDS011;10202;48.474;9.138;2023-03-01T15:14:53;19.98;;;12.75;;
20084;SDS011;10202;48.474;9.138;2023-03-01T15:20:00;21.73;;;13.10;;
20084;SDS011;10202;48.474;9.138;2023-03-01T15:22:29;22.92;;;12.80;;
20084;SDS011;10202;48.474;9.138;2023-03-01T15:24:55;21.15;;;13.95;;
20084;SDS011;10202;48.474;9.138;2023-03-01T15:27:24;22.02;;;13.95;;
20084;SDS011;10202;48.474;9.138;2023-03-01T15:29:57;21.05;;;13.57;;
20084;SDS011;10202;48.474;9.138;2023-03-01T15:32:29;21.58;;;13.30;;
20084;SDS011;10202;48.474;9.138;2023-03-01T15:40:54;24.52;;;14.73;;
20084;SDS011;10202;48.474;9.138;2023-03-01T15:43:38;21.55;;;14.25;;
20084;SDS011;10202;48.474;9.138;2023-03-01T15:46:27;22.75;;;14.50;;
20084;SDS011;10202;48.474;9.138;2023-03-01T15:49:00;24.35;;;13.75;;
20084;SDS011;10202;48.474;9.138;2023-03-01T15:51:34;21.30;;;13.70;;
20084;SDS011;10202;48.474;9.138;2023-03-01T15:54:06;26.25;;;15.15;;
20084;SDS011;10202;48.474;9.138;2023-03-01T15:56:43;22.80;;;14.15;;
20084;SDS011;10202;48.474;9.138;2023-03-01T15:59:10;24.17;;;14.52;;
20084;SDS011;10202;48.474;9.138;2023-03-01T16:01:43;25.30;;;15.75;;
20084;SDS011;10202;48.474;9.138;2023-03-01T16:04:12;25.85;;;14.02;;
20084;SDS011;10202;48.474;9.138;2023-03-01T16:06:48;23.42;;;14.35;;
20084;SDS011;10202;48.474;9.138;2023-03-01T16:09:25;26.23;;;15.63;;
20084;SDS011;10202;48.474;9.138;2023-03-01T16:11:52;23.92;;;14.00;;
20084;SDS011;10202;48.474;9.138;2023-03-01T16:14:20;24.17;;;14.65;;
20084;SDS011;10202;48.474;9.138;2023-03-01T16:16:46;24.17;;;13.93;;
20084;SDS011;10202;48.474;9.138;2023-03-01T16:19:14;23.63;;;13.57;;
20084;SDS011;10202;48.474;9.138;2023-03-01T16:21:43;24.80;;;14.10;;
20084;SDS011;10202;48.474;9.138;2023-03-01T16:24:12;23.58;;;13.98;;
20084;SDS011;10202;48.474;9.138;2023-03-01T16:26:40;24.45;;;15.13;;
20084;SDS011;10202;48.474;9.138;2023-03-01T16:29:08;24.27;;;14.40;;
20084;SDS011;10202;48.474;9.138;2023-03-01T16:31:39;23.27;;;14.55;;
20084;SDS011;10202;48.474;9.138;2023-03-01T16:34:09;26.08;;;14.48;;
20084;SDS011;10202;48.474;9.138;2023-03-01T16:36:35;27.13;;;14.30;;
20084;SDS011;10202;48.474;9.138;2023-03-01T16:39:06;25.77;;;14.40;;
20084;SDS011;10202;48.474;9.138;2023-03-01T16:41:34;23.92;;;13.95;;
20084;SDS011;10202;48.474;9.138;2023-03-01T16:44:02;26.05;;;14.68;;
20084;SDS011;10202;48.474;9.138;2023-03-01T16:46:28;25.77;;;14.93;;
20084;SDS011;10202;48.474;9.138;2023-03-01T16:48:56;24.50;;;14.65;;
20084;SDS011;10202;48.474;9.138;2023-03-01T16:51:22;23.85;;;14.32;;
20084;SDS011;10202;48.474;9.138;2023-03-01T16:53:48;23.67;;;14.25;;
20084;SDS011;10202;48.474;9.138;2023-03-01T16:56:15;28.23;;;14.30;;
20084;SDS011;10202;48.474;9.138;2023-03-01T16:58:44;23.13;;;14.05;;
20084;SDS011;10202;48.474;9.138;2023-03-01T17:01:13;24.40;;;13.60;;
20084;SDS011;10202;48.474;9.138;2023-03-01T17:03:49;23.95;;;13.45;;
20084;SDS011;10202;48.474;9.138;2023-03-01T17:06:18;29.13;;;15.35;;
20084;SDS011;10202;48.474;9.138;2023-03-01T17:08:48;22.38;;;13.57;;
20084;SDS011;10202;48.474;9.138;2023-03-01T17:11:15;26.27;;;14.35;;
20084;SDS011;10202;48.474;9.138;2023-03-01T17:13:46;34.90;;;18.23;;
20084;SDS011;10202;48.474;9.138;2023-03-01T17:16:13;27.97;;;14.70;;
20084;SDS011;10202;48.474;9.138;2023-03-01T17:18:44;26.13;;;14.27;;
20084;SDS011;10202;48.474;9.138;2023-03-01T17:21:11;23.23;;;14.57;;